Monkton, Maryland
Current Conditions -  °F | °C
As of 5:50 AM on Thursday 23 Oct 2014 (Local Time) from KMTN Reporting Station
Broken Clouds Broken Clouds  
Wind Chill: 54°   Ceiling: 3500
Heat Index: 54°   Visibility: 10mi
Dew Point: 46°   Wind: 10mph
Humidity: 77%   Direction: 300°WNW
Pressure: 29.96"   Gusts: NA
Location:  39.58°N, 76.61°W
Report Text: KMTN 230950Z 30009KT 10SM BKN035 12/08 A2996 RMK FIRST
Loading
Personal Weather Stations






























Interactive Weather Map New forecast layout! Learn more

10-Day Weather Forecast

Advertisements
Track Severe Weather on mobile